Time;durP1;ratioP1;P1;durP2;ratioP2;P2;SDS_P1;SDS_P2;PMS_P1;PMS_P2;Temp;Humidity;BMP_temperature;BMP_pressure;BME280_temperature;BME280_humidity;BME280_pressure;Samples;Min_cycle;Max_cycle;Signal;HPM_P1;HPM_P2
2023/12/18 00:01:52;;;;;;;6.03;2.40;;;7.50;99.90;;;;;;6250830;22;20239;-83
2023/12/18 00:04:57;;;;;;;5.27;2.73;;;7.50;12.70;;;;;;6253975;22;20156;-84
2023/12/18 00:07:26;;;;;;;6.15;1.73;;;7.50;1.00;;;;;;6251045;22;20384;-84
2023/12/18 00:10:08;;;;;;;2.83;2.13;;;7.50;1.00;;;;;;6250669;22;20198;-81
2023/12/18 00:12:34;;;;;;;4.70;1.98;;;7.50;1.00;;;;;;6276418;22;20149;-84
2023/12/18 00:14:59;;;;;;;5.83;1.83;;;7.50;1.00;;;;;;6276516;22;20638;-83
2023/12/18 00:17:25;;;;;;;5.97;1.93;;;7.40;1.00;;;;;;6277542;22;20155;-85
2023/12/18 00:19:51;;;;;;;3.73;2.10;;;7.40;1.00;;;;;;6279181;22;20243;-85
2023/12/18 00:22:17;;;;;;;6.93;2.08;;;7.40;99.90;;;;;;6276166;22;20211;-87
2023/12/18 00:24:42;;;;;;;4.50;1.80;;;7.40;99.90;;;;;;6249296;22;20144;-87
2023/12/18 00:27:08;;;;;;;4.70;2.27;;;7.40;99.90;;;;;;6276883;22;20729;-85
2023/12/18 00:29:33;;;;;;;7.37;1.90;;;7.40;99.90;;;;;;6276056;22;20267;-87
2023/12/18 00:31:58;;;;;;;5.70;2.30;;;7.40;99.90;;;;;;6278807;22;20153;-86
2023/12/18 00:34:24;;;;;;;5.97;2.40;;;7.40;99.90;;;;;;6277574;22;20507;-84
2023/12/18 00:36:49;;;;;;;9.77;3.10;;;7.40;99.90;;;;;;6250923;22;20149;-85
2023/12/18 00:39:15;;;;;;;5.07;2.17;;;7.40;99.90;;;;;;6279047;22;20169;-85
2023/12/18 00:41:41;;;;;;;4.30;2.30;;;7.40;99.90;;;;;;6275434;22;20195;-85
2023/12/18 00:44:07;;;;;;;6.75;2.50;;;7.40;99.90;;;;;;6278876;22;20170;-85
2023/12/18 00:46:32;;;;;;;6.30;3.20;;;7.30;99.90;;;;;;6250895;22;20232;-85
2023/12/18 00:48:58;;;;;;;4.70;2.63;;;7.30;1.00;;;;;;6278024;22;20200;-83
2023/12/18 00:51:23;;;;;;;2.50;2.30;;;7.30;1.00;;;;;;6251458;22;20574;-84
2023/12/18 00:53:49;;;;;;;10.20;3.67;;;7.30;1.00;;;;;;6250056;22;20206;-84
2023/12/18 00:56:15;;;;;;;6.43;2.80;;;7.20;1.00;;;;;;6280082;22;20150;-85
2023/12/18 00:58:40;;;;;;;6.57;3.10;;;7.20;1.00;;;;;;6280066;22;20224;-86
2023/12/18 01:01:06;;;;;;;6.80;3.20;;;7.10;1.00;;;;;;6253184;22;20157;-85
2023/12/18 01:03:31;;;;;;;11.87;2.90;;;7.10;1.00;;;;;;6276917;22;20176;-85
2023/12/18 01:05:57;;;;;;;5.77;3.23;;;7.00;1.00;;;;;;6277790;22;20213;-86
2023/12/18 01:08:22;;;;;;;7.43;3.37;;;7.00;1.00;;;;;;6280192;22;20203;-85
2023/12/18 01:10:48;;;;;;;2.83;2.30;;;7.00;1.00;;;;;;6280412;22;20149;-85
2023/12/18 01:13:13;;;;;;;4.37;2.87;;;6.90;1.00;;;;;;6280606;22;20145;-85
2023/12/18 01:15:39;;;;;;;3.50;2.57;;;6.90;1.00;;;;;;6280915;22;20145;-85
2023/12/18 01:18:05;;;;;;;4.00;2.97;;;6.90;1.00;;;;;;6255293;22;20256;-86
2023/12/18 01:20:30;;;;;;;7.50;3.57;;;6.90;1.00;;;;;;6281559;22;20141;-85
2023/12/18 01:22:56;;;;;;;5.33;2.47;;;6.90;1.00;;;;;;6281413;22;20145;-86
2023/12/18 01:25:21;;;;;;;6.97;2.90;;;6.90;99.90;;;;;;6281843;22;20145;-84
2023/12/18 01:27:47;;;;;;;5.20;2.83;;;6.90;99.90;;;;;;6280787;22;20235;-85
2023/12/18 01:30:13;;;;;;;6.40;2.93;;;6.90;99.90;;;;;;6281537;22;20169;-86
2023/12/18 01:32:38;;;;;;;5.40;3.40;;;6.80;99.90;;;;;;6281034;22;20176;-86
2023/12/18 01:35:04;;;;;;;3.87;2.60;;;6.80;99.90;;;;;;6255504;22;20149;-85
2023/12/18 01:37:30;;;;;;;5.53;3.25;;;6.80;99.90;;;;;;6283583;22;20149;-87
2023/12/18 01:39:55;;;;;;;7.00;2.40;;;6.80;99.90;;;;;;6285557;22;20226;-85
2023/12/18 01:42:21;;;;;;;5.77;3.23;;;6.80;99.90;;;;;;6284850;22;20193;-84
2023/12/18 01:44:48;;;;;;;4.20;2.97;;;6.80;99.90;;;;;;6287347;22;20176;-86
2023/12/18 01:47:14;;;;;;;8.38;2.85;;;6.80;99.90;;;;;;6277256;22;20145;-84
2023/12/18 01:49:41;;;;;;;4.30;2.85;;;6.80;99.90;;;;;;6277669;22;20176;-84
2023/12/18 01:52:07;;;;;;;4.88;2.75;;;6.70;99.90;;;;;;6276792;22;20148;-84
2023/12/18 01:54:32;;;;;;;3.90;2.70;;;6.80;99.90;;;;;;6278133;22;20224;-86
2023/12/18 01:56:59;;;;;;;9.30;3.50;;;6.80;99.90;;;;;;6274658;22;20172;-84
2023/12/18 01:59:25;;;;;;;6.03;3.20;;;6.70;99.90;;;;;;6276020;22;20176;-84
2023/12/18 02:01:51;;;;;;;6.43;2.73;;;6.70;99.90;;;;;;6276199;22;20231;-85
2023/12/18 02:04:18;;;;;;;7.25;3.40;;;6.70;99.90;;;;;;6275238;22;20379;-85
2023/12/18 02:06:47;;;;;;;3.70;3.00;;;6.60;99.90;;;;;;6275054;22;20152;-86
2023/12/18 02:09:15;;;;;;;4.57;2.85;;;6.60;99.90;;;;;;6275713;22;20187;-85
2023/12/18 02:11:43;;;;;;;7.57;3.17;;;6.60;99.90;;;;;;6274814;22;20161;-86
2023/12/18 02:14:09;;;;;;;5.00;2.70;;;6.60;1.00;;;;;;6275836;22;20140;-84
2023/12/18 02:16:35;;;;;;;7.77;3.60;;;6.60;1.00;;;;;;6276784;22;20162;-83
2023/12/18 02:19:00;;;;;;;7.17;3.23;;;6.50;1.00;;;;;;6275038;22;20219;-86
2023/12/18 02:21:26;;;;;;;7.20;3.60;;;6.50;1.00;;;;;;6276497;22;20374;-84
2023/12/18 02:23:51;;;;;;;9.63;3.67;;;6.50;1.00;;;;;;6276763;22;20157;-83
2023/12/18 02:26:17;;;;;;;4.60;3.40;;;6.40;1.00;;;;;;6276794;22;20221;-84
2023/12/18 02:28:46;;;;;;;5.37;3.20;;;6.40;1.00;;;;;;6276999;22;20187;-85
2023/12/18 02:31:13;;;;;;;7.50;3.33;;;6.40;1.00;;;;;;6269808;22;20153;-85
2023/12/18 02:33:39;;;;;;;7.57;3.85;;;6.40;1.00;;;;;;6276581;22;20149;-85
2023/12/18 02:36:04;;;;;;;5.27;3.70;;;6.30;1.00;;;;;;6280294;22;20145;-84
2023/12/18 02:38:30;;;;;;;5.37;4.23;;;6.30;54.00;;;;;;6280845;22;20172;-82
2023/12/18 02:40:55;;;;;;;8.23;4.07;;;6.30;70.50;;;;;;6280334;22;20152;-85
2023/12/18 02:43:21;;;;;;;6.23;3.83;;;6.30;99.90;;;;;;6279022;22;20153;-84
2023/12/18 02:45:46;;;;;;;5.43;3.60;;;6.30;99.90;;;;;;6281172;22;20172;-84
2023/12/18 02:48:12;;;;;;;8.07;4.07;;;6.20;99.90;;;;;;6253434;22;20258;-86
2023/12/18 02:50:38;;;;;;;7.33;3.87;;;6.20;99.90;;;;;;6278359;22;20171;-84
2023/12/18 02:53:04;;;;;;;4.78;3.50;;;6.10;99.90;;;;;;6252119;22;20155;-86
2023/12/18 02:55:29;;;;;;;6.90;3.87;;;6.10;99.90;;;;;;6280257;22;20172;-84
2023/12/18 02:57:55;;;;;;;9.30;4.60;;;6.10;99.90;;;;;;6280621;22;20168;-84
2023/12/18 03:00:20;;;;;;;6.90;4.00;;;6.00;99.90;;;;;;6280831;22;20146;-84
2023/12/18 03:02:46;;;;;;;8.00;4.83;;;6.00;99.90;;;;;;6279853;22;20156;-86
2023/12/18 03:05:12;;;;;;;10.60;4.10;;;6.00;99.90;;;;;;6280359;22;20494;-84
2023/12/18 03:07:37;;;;;;;13.00;5.20;;;5.90;99.90;;;;;;6251814;22;20430;-84
2023/12/18 03:10:03;;;;;;;8.50;4.17;;;5.90;1.00;;;;;;6254900;22;20155;-85
2023/12/18 03:12:28;;;;;;;9.00;4.57;;;5.90;1.00;;;;;;6252107;22;20153;-85
2023/12/18 03:14:54;;;;;;;8.30;4.10;;;5.80;1.00;;;;;;6282462;22;20368;-84
2023/12/18 03:17:20;;;;;;;9.27;4.50;;;5.80;1.00;;;;;;6280718;22;20152;-84
2023/12/18 03:19:45;;;;;;;7.10;4.47;;;5.70;1.00;;;;;;6271157;22;20204;-83
2023/12/18 03:22:11;;;;;;;12.63;4.20;;;5.70;99.90;;;;;;6275504;22;20141;-83
2023/12/18 03:24:39;;;;;;;8.33;4.03;;;5.70;99.90;;;;;;6274446;22;20145;-83
2023/12/18 03:27:05;;;;;;;9.88;4.80;;;5.70;99.90;;;;;;6275696;22;20149;-82
2023/12/18 03:29:30;;;;;;;5.90;4.17;;;5.60;99.90;;;;;;6275073;22;20188;-83
2023/12/18 03:31:56;;;;;;;10.03;4.40;;;5.60;1.00;;;;;;6273677;22;20198;-84
2023/12/18 03:34:21;;;;;;;6.90;4.60;;;5.60;1.00;;;;;;6275683;22;20530;-84
2023/12/18 03:36:47;;;;;;;11.77;5.10;;;5.50;1.00;;;;;;6274576;22;20153;-83
2023/12/18 03:39:12;;;;;;;9.80;4.33;;;5.50;1.00;;;;;;6247648;22;20260;-84
2023/12/18 03:41:38;;;;;;;9.07;4.70;;;5.50;1.00;;;;;;6274655;22;20202;-84
2023/12/18 03:44:03;;;;;;;10.53;4.20;;;5.50;1.00;;;;;;6276905;22;20156;-84
2023/12/18 03:46:29;;;;;;;7.27;5.07;;;5.40;1.00;;;;;;6277789;22;20148;-84
2023/12/18 03:48:54;;;;;;;8.43;4.50;;;5.40;1.00;;;;;;6275607;22;20181;-83
2023/12/18 03:51:20;;;;;;;9.00;4.40;;;5.30;99.90;;;;;;6279103;22;20508;-84
2023/12/18 03:53:45;;;;;;;8.70;4.17;;;5.20;99.90;;;;;;6278202;22;20144;-84
2023/12/18 03:56:11;;;;;;;14.23;4.73;;;5.20;99.90;;;;;;6277440;22;20502;-82
2023/12/18 03:58:36;;;;;;;8.47;5.40;;;5.20;1.00;;;;;;6277555;22;20222;-83
2023/12/18 04:01:02;;;;;;;10.67;5.33;;;5.20;1.00;;;;;;6277853;22;20145;-84
2023/12/18 04:03:28;;;;;;;6.90;5.00;;;5.20;99.90;;;;;;6280396;22;20223;-84
2023/12/18 04:05:53;;;;;;;9.07;4.60;;;5.20;1.00;;;;;;6252565;22;20379;-84
2023/12/18 04:08:19;;;;;;;10.33;5.13;;;5.20;99.90;;;;;;6278390;22;20180;-83
2023/12/18 04:10:44;;;;;;;11.00;5.97;;;5.20;1.00;;;;;;6278692;22;20227;-84
2023/12/18 04:13:10;;;;;;;9.67;4.80;;;5.20;1.00;;;;;;6279640;22;20190;-83
2023/12/18 04:15:35;;;;;;;12.87;6.33;;;5.20;99.90;;;;;;6280147;22;20141;-84
2023/12/18 04:18:01;;;;;;;9.87;6.53;;;5.20;99.90;;;;;;6279752;22;20159;-83
2023/12/18 04:20:26;;;;;;;7.10;5.33;;;5.20;1.00;;;;;;6280153;22;20479;-84
2023/12/18 04:22:52;;;;;;;9.73;5.53;;;5.30;1.00;;;;;;6250326;22;20153;-85
2023/12/18 04:25:17;;;;;;;16.23;6.10;;;5.30;1.00;;;;;;6279903;22;20149;-82
2023/12/18 04:27:43;;;;;;;9.73;5.03;;;5.30;99.90;;;;;;6279542;22;20607;-84
2023/12/18 04:30:09;;;;;;;9.47;5.23;;;5.30;1.00;;;;;;6253017;22;20170;-84
2023/12/18 04:32:34;;;;;;;10.15;4.93;;;5.30;28.40;;;;;;6276645;22;20152;-84
2023/12/18 04:35:00;;;;;;;11.50;5.23;;;5.30;99.90;;;;;;6277854;22;20248;-84
2023/12/18 04:37:25;;;;;;;7.60;5.43;;;5.30;99.90;;;;;;6278561;22;20145;-83
2023/12/18 04:39:51;;;;;;;7.50;6.00;;;5.30;99.90;;;;;;6278577;22;20175;-84
2023/12/18 04:42:16;;;;;;;6.63;4.93;;;5.30;99.90;;;;;;6282316;22;20152;-84
2023/12/18 04:44:42;;;;;;;9.70;6.00;;;5.30;99.90;;;;;;6284595;22;20603;-84
2023/12/18 04:47:08;;;;;;;8.83;5.33;;;5.20;99.90;;;;;;6283017;22;20149;-85
2023/12/18 04:49:33;;;;;;;11.20;5.50;;;5.20;99.90;;;;;;6279633;22;20185;-84
2023/12/18 04:51:59;;;;;;;13.00;5.70;;;5.20;99.90;;;;;;6249136;22;20252;-84
2023/12/18 04:54:24;;;;;;;8.83;5.23;;;5.20;99.90;;;;;;6278853;22;20149;-84
2023/12/18 04:56:49;;;;;;;8.07;5.87;;;5.20;99.90;;;;;;6278654;22;20474;-84
2023/12/18 04:59:15;;;;;;;8.90;6.13;;;5.20;99.90;;;;;;6277481;22;20194;-83
2023/12/18 05:01:41;;;;;;;19.20;6.53;;;5.20;99.90;;;;;;6277777;22;20149;-83
2023/12/18 05:04:06;;;;;;;8.57;6.10;;;5.10;99.90;;;;;;6278235;22;20214;-84
2023/12/18 05:06:32;;;;;;;11.67;6.77;;;5.10;99.90;;;;;;6278548;22;20156;-82
2023/12/18 05:08:57;;;;;;;13.03;6.70;;;5.10;1.00;;;;;;6278687;22;20181;-83
2023/12/18 05:11:24;;;;;;;11.13;6.13;;;5.10;1.00;;;;;;6249124;22;20145;-84
2023/12/18 05:13:50;;;;;;;13.32;6.50;;;5.10;1.00;;;;;;6277732;22;20176;-83
2023/12/18 05:16:16;;;;;;;13.82;7.25;;;5.10;1.00;;;;;;6250717;22;20232;-84
2023/12/18 05:18:42;;;;;;;10.48;6.35;;;5.00;1.00;;;;;;6277983;22;20207;-84
2023/12/18 05:21:09;;;;;;;10.53;6.83;;;5.00;1.00;;;;;;6277812;22;20156;-84
2023/12/18 05:23:35;;;;;;;9.55;6.47;;;5.00;1.00;;;;;;6277689;22;20866;-85
2023/12/18 05:26:00;;;;;;;8.10;5.93;;;5.00;1.00;;;;;;6251331;22;20153;-82
2023/12/18 05:28:26;;;;;;;10.90;6.60;;;5.00;1.00;;;;;;6275809;22;20184;-83
2023/12/18 05:30:52;;;;;;;15.73;8.82;;;5.00;1.00;;;;;;6278154;22;20223;-84
2023/12/18 05:33:18;;;;;;;11.33;7.10;;;5.00;1.00;;;;;;6275185;22;20540;-83
2023/12/18 05:35:43;;;;;;;12.77;7.40;;;5.00;1.00;;;;;;6280445;22;20217;-84
2023/12/18 05:38:09;;;;;;;14.60;8.50;;;4.90;1.00;;;;;;6281495;22;20402;-85
2023/12/18 05:40:35;;;;;;;12.10;7.70;;;4.90;1.00;;;;;;6280744;22;20152;-84
2023/12/18 05:43:01;;;;;;;12.68;7.43;;;4.90;1.00;;;;;;6280634;22;20227;-84
2023/12/18 05:45:26;;;;;;;12.87;8.77;;;4.90;16.70;;;;;;6281035;22;20168;-85
2023/12/18 05:47:52;;;;;;;32.67;9.47;;;4.90;4.50;;;;;;6280627;22;20168;-83
2023/12/18 05:50:17;;;;;;;15.80;8.17;;;4.80;11.10;;;;;;6280658;22;20145;-83
2023/12/18 05:52:43;;;;;;;12.70;7.83;;;4.80;91.30;;;;;;6281251;22;20577;-84
2023/12/18 05:55:10;;;;;;;12.90;8.33;;;4.80;99.90;;;;;;6253733;22;20148;-84
2023/12/18 05:57:36;;;;;;;15.15;7.88;;;4.70;99.90;;;;;;6281401;22;20198;-84
2023/12/18 06:00:03;;;;;;;15.43;8.13;;;4.70;99.90;;;;;;6254320;22;20204;-84
2023/12/18 06:02:29;;;;;;;16.58;9.23;;;4.70;99.90;;;;;;6281131;22;20163;-84
2023/12/18 06:04:54;;;;;;;15.13;7.67;;;4.70;99.90;;;;;;6278814;22;20153;-83
2023/12/18 06:07:20;;;;;;;18.20;8.47;;;4.70;99.90;;;;;;6279401;22;20194;-84
2023/12/18 06:09:46;;;;;;;17.30;10.00;;;4.60;99.90;;;;;;6281000;22;20168;-84
2023/12/18 06:12:11;;;;;;;14.00;9.50;;;4.60;99.90;;;;;;6280578;22;20148;-83
2023/12/18 06:14:37;;;;;;;14.40;9.90;;;4.50;99.90;;;;;;6284166;22;20231;-83
2023/12/18 06:17:03;;;;;;;19.93;9.53;;;4.50;99.90;;;;;;6288455;22;20141;-84
2023/12/18 06:19:28;;;;;;;18.07;10.50;;;4.50;99.90;;;;;;6289164;22;20240;-85
2023/12/18 06:21:54;;;;;;;16.77;10.00;;;4.50;99.90;;;;;;6286213;22;20411;-84
2023/12/18 06:24:19;;;;;;;20.20;11.60;;;4.50;99.90;;;;;;6285406;22;20479;-84
2023/12/18 06:26:45;;;;;;;18.23;10.33;;;4.50;99.90;;;;;;6286546;22;20156;-84
2023/12/18 06:29:10;;;;;;;20.00;10.57;;;4.40;99.90;;;;;;6277095;22;20644;-84
2023/12/18 06:31:36;;;;;;;20.27;10.70;;;4.40;99.90;;;;;;6277774;22;20149;-84
2023/12/18 06:34:01;;;;;;;18.20;11.50;;;4.40;99.90;;;;;;6274855;22;20186;-84
2023/12/18 06:36:27;;;;;;;19.43;11.30;;;4.40;99.90;;;;;;6274043;22;20152;-84
2023/12/18 06:38:53;;;;;;;18.83;11.90;;;4.30;99.90;;;;;;6274316;22;20195;-85
2023/12/18 06:41:18;;;;;;;27.23;13.40;;;4.30;99.90;;;;;;6274309;22;20144;-87
2023/12/18 06:43:44;;;;;;;20.90;12.73;;;4.30;99.90;;;;;;6275706;22;20149;-86
2023/12/18 06:46:09;;;;;;;24.40;13.70;;;4.30;99.90;;;;;;6274702;22;20222;-87
2023/12/18 06:48:35;;;;;;;22.10;12.10;;;4.30;99.90;;;;;;6275247;22;20203;-87
2023/12/18 06:51:00;;;;;;;25.00;13.10;;;4.30;1.00;;;;;;6274981;22;20202;-86
2023/12/18 06:53:26;;;;;;;21.47;14.20;;;4.30;1.00;;;;;;6274408;22;20168;-86
2023/12/18 06:55:51;;;;;;;24.30;14.67;;;4.40;1.00;;;;;;6276857;22;20137;-87
2023/12/18 06:58:17;;;;;;;25.60;15.13;;;4.50;1.00;;;;;;6274200;22;20165;-86
2023/12/18 07:00:43;;;;;;;26.23;15.20;;;4.60;1.00;;;;;;6275605;22;20145;-86
2023/12/18 07:03:09;;;;;;;22.15;14.05;;;4.70;1.00;;;;;;6273420;22;20156;-86
2023/12/18 07:05:35;;;;;;;34.40;16.63;;;4.80;1.00;;;;;;6274566;22;20600;-87
2023/12/18 07:08:00;;;;;;;30.17;15.57;;;4.80;1.00;;;;;;6280376;22;20937;-87
2023/12/18 07:10:26;;;;;;;33.63;16.60;;;4.90;1.00;;;;;;6275861;22;20145;-87
2023/12/18 07:12:51;;;;;;;31.33;16.53;;;5.00;1.00;;;;;;6275626;22;20144;-83
2023/12/18 07:15:17;;;;;;;31.13;17.50;;;5.10;1.00;;;;;;6252003;22;20223;-84
2023/12/18 07:17:42;;;;;;;25.53;15.80;;;5.10;1.00;;;;;;6278599;22;20144;-85
2023/12/18 07:20:08;;;;;;;24.40;14.30;;;5.10;1.00;;;;;;6279048;22;20794;-82
2023/12/18 07:22:35;;;;;;;31.93;17.37;;;5.10;1.00;;;;;;6280381;22;20164;-84
2023/12/18 07:25:04;;;;;;;26.50;16.70;;;5.10;1.00;;;;;;6252981;22;20766;-85
2023/12/18 07:27:29;;;;;;;25.75;16.77;;;5.10;1.00;;;;;;6278485;22;20148;-83
2023/12/18 07:29:55;;;;;;;27.53;18.20;;;5.20;1.00;;;;;;6280544;22;20269;-83
2023/12/18 07:32:21;;;;;;;26.43;17.20;;;5.30;1.00;;;;;;6252333;22;20160;-82
2023/12/18 07:34:46;;;;;;;40.15;16.17;;;5.40;1.00;;;;;;6279490;22;20208;-84
2023/12/18 07:37:13;;;;;;;26.13;17.47;;;5.40;99.90;;;;;;6279584;22;20141;-83
2023/12/18 07:39:38;;;;;;;28.17;17.55;;;5.50;99.90;;;;;;6280663;22;20168;-86
2023/12/18 07:42:04;;;;;;;29.03;17.57;;;5.50;99.90;;;;;;6252451;22;20222;-84
2023/12/18 07:44:30;;;;;;;28.00;16.67;;;5.60;99.90;;;;;;6281488;22;20145;-83
2023/12/18 07:46:55;;;;;;;26.33;16.30;;;5.60;99.90;;;;;;6281587;22;20148;-83
2023/12/18 07:49:22;;;;;;;28.40;16.97;;;5.60;99.90;;;;;;6253321;22;20188;-83
2023/12/18 07:51:48;;;;;;;23.23;15.88;;;5.70;99.90;;;;;;6280195;22;20523;-83
2023/12/18 07:54:14;;;;;;;28.57;16.37;;;5.70;99.90;;;;;;6247812;22;20153;-83
2023/12/18 07:56:39;;;;;;;25.00;16.55;;;5.70;99.90;;;;;;6277500;22;20599;-82
2023/12/18 07:59:07;;;;;;;24.17;17.00;;;5.80;99.90;;;;;;6275735;22;20169;-83
2023/12/18 08:01:33;;;;;;;32.45;17.52;;;5.80;99.90;;;;;;6249317;22;20210;-83
2023/12/18 08:03:58;;;;;;;27.70;18.30;;;5.90;33.10;;;;;;6248666;22;20156;-83
2023/12/18 08:06:25;;;;;;;26.83;15.70;;;6.00;1.00;;;;;;6274791;22;20152;-82
2023/12/18 08:08:50;;;;;;;30.92;18.30;;;6.00;1.00;;;;;;6275491;22;20176;-84
2023/12/18 08:11:15;;;;;;;24.87;17.00;;;6.00;1.00;;;;;;6272499;22;20151;-81
2023/12/18 08:13:42;;;;;;;27.40;17.20;;;6.00;1.00;;;;;;6276932;22;20145;-83
2023/12/18 08:16:09;;;;;;;25.80;16.38;;;6.00;1.00;;;;;;6277540;22;20144;-83
2023/12/18 08:18:34;;;;;;;27.77;17.40;;;6.00;99.90;;;;;;6276992;22;20212;-81
2023/12/18 08:21:00;;;;;;;27.90;17.00;;;6.10;99.90;;;;;;6276982;22;20153;-84
2023/12/18 08:23:26;;;;;;;23.77;15.20;;;6.10;1.00;;;;;;6278291;22;20201;-82
2023/12/18 08:25:52;;;;;;;26.70;15.95;;;6.40;1.00;;;;;;6279343;22;20149;-82
2023/12/18 08:28:17;;;;;;;26.27;15.40;;;6.50;1.00;;;;;;6276676;22;20259;-83
2023/12/18 08:30:44;;;;;;;25.20;15.63;;;6.30;1.00;;;;;;6277902;22;20148;-82
2023/12/18 08:33:09;;;;;;;25.02;16.30;;;6.30;1.00;;;;;;6275712;22;20156;-83
2023/12/18 08:35:35;;;;;;;23.03;14.40;;;6.20;99.90;;;;;;6277143;22;20255;-83
2023/12/18 08:38:00;;;;;;;22.63;15.37;;;6.10;99.90;;;;;;6279696;22;20153;-84
2023/12/18 08:40:26;;;;;;;29.20;18.73;;;6.00;99.90;;;;;;6281357;22;20159;-83
2023/12/18 08:42:52;;;;;;;25.60;15.80;;;6.00;1.00;;;;;;6282706;22;20152;-84
2023/12/18 08:45:17;;;;;;;22.90;15.43;;;6.00;99.90;;;;;;6283230;22;20159;-84
2023/12/18 08:47:43;;;;;;;26.50;16.60;;;6.00;32.50;;;;;;6280837;22;20604;-83
2023/12/18 08:50:09;;;;;;;25.67;17.03;;;6.00;1.00;;;;;;6281076;22;20259;-84
2023/12/18 08:52:35;;;;;;;29.70;17.60;;;6.00;1.00;;;;;;6279042;22;20141;-82
2023/12/18 08:55:01;;;;;;;31.45;18.38;;;6.00;1.00;;;;;;6278429;22;20373;-82
2023/12/18 08:57:27;;;;;;;25.83;13.77;;;5.90;99.90;;;;;;6279563;22;20451;-82
2023/12/18 08:59:54;;;;;;;26.40;17.75;;;5.90;99.90;;;;;;6278837;22;20171;-83
2023/12/18 09:02:19;;;;;;;24.48;16.58;;;5.90;1.00;;;;;;6277489;22;20175;-83
2023/12/18 09:04:45;;;;;;;26.23;13.80;;;6.00;1.00;;;;;;6254239;22;20144;-84
2023/12/18 09:07:11;;;;;;;26.50;12.77;;;6.00;1.00;;;;;;6280594;22;20255;-83
2023/12/18 09:09:39;;;;;;;26.40;15.23;;;6.00;1.00;;;;;;6281263;22;20234;-84
2023/12/18 09:12:08;;;;;;;25.23;15.23;;;6.10;1.00;;;;;;6279425;22;20148;-84
2023/12/18 09:14:33;;;;;;;22.83;12.90;;;6.10;1.00;;;;;;6281757;22;20168;-84
2023/12/18 09:16:59;;;;;;;27.60;16.43;;;6.20;1.00;;;;;;6277265;22;20144;-84
2023/12/18 09:19:29;;;;;;;26.97;15.53;;;6.20;1.00;;;;;;6279602;22;20199;-82
2023/12/18 09:21:54;;;;;;;28.77;16.40;;;6.10;1.00;;;;;;6280554;22;20206;-84
2023/12/18 09:24:20;;;;;;;23.70;13.63;;;6.10;92.20;;;;;;6280472;22;20156;-82
2023/12/18 09:26:46;;;;;;;27.37;14.90;;;6.10;99.90;;;;;;6247029;22;20539;-84
2023/12/18 09:29:11;;;;;;;22.87;13.60;;;6.10;99.90;;;;;;6276725;22;20187;-83
2023/12/18 09:31:37;;;;;;;27.57;13.73;;;6.20;99.90;;;;;;6250023;22;20231;-83
2023/12/18 09:34:02;;;;;;;20.87;13.53;;;6.20;99.90;;;;;;6277379;22;20586;-83
2023/12/18 09:36:28;;;;;;;19.80;11.70;;;6.30;99.90;;;;;;6277762;22;20149;-83
2023/12/18 09:38:53;;;;;;;18.10;11.10;;;6.30;99.90;;;;;;6277864;22;20519;-84
2023/12/18 09:41:25;;;;;;;25.10;11.13;;;6.30;99.90;;;;;;6277657;22;20655;-83
2023/12/18 09:43:52;;;;;;;18.15;10.55;;;6.40;99.90;;;;;;6277569;22;20160;-83
2023/12/18 09:46:19;;;;;;;19.63;10.98;;;6.40;99.90;;;;;;6278909;22;20646;-82
2023/12/18 09:48:45;;;;;;;20.92;11.88;;;6.40;99.90;;;;;;6277898;22;20241;-83
2023/12/18 09:51:16;;;;;;;20.27;10.33;;;6.40;99.90;;;;;;6249969;22;20157;-84
2023/12/18 09:53:42;;;;;;;21.02;11.43;;;6.40;99.90;;;;;;6277252;22;20482;-82
2023/12/18 09:56:08;;;;;;;19.10;10.57;;;6.40;99.90;;;;;;6277577;22;20223;-84
2023/12/18 09:58:33;;;;;;;23.73;11.87;;;6.40;99.90;;;;;;6278001;22;20168;-83
2023/12/18 10:00:59;;;;;;;19.03;9.87;;;6.40;99.90;;;;;;6276074;22;20153;-83
2023/12/18 10:03:24;;;;;;;13.77;9.70;;;6.40;99.90;;;;;;6277852;22;20156;-84
2023/12/18 10:05:50;;;;;;;15.73;10.77;;;6.50;99.90;;;;;;6250624;22;20157;-83
2023/12/18 10:08:15;;;;;;;16.73;10.53;;;6.40;99.90;;;;;;6250168;22;20238;-83
2023/12/18 10:10:43;;;;;;;15.13;9.03;;;6.50;99.90;;;;;;6281602;22;20155;-83
2023/12/18 10:13:11;;;;;;;18.38;9.50;;;6.50;99.90;;;;;;6280541;22;20237;-82
2023/12/18 10:15:39;;;;;;;16.75;7.35;;;6.50;99.90;;;;;;6281618;22;20222;-83
2023/12/18 10:18:05;;;;;;;12.50;7.63;;;6.50;99.90;;;;;;6254485;22;20204;-84
2023/12/18 10:20:34;;;;;;;17.40;7.55;;;6.50;99.90;;;;;;6255623;22;20407;-83
2023/12/18 10:23:00;;;;;;;13.70;8.15;;;6.50;99.90;;;;;;6282916;22;20152;-85
2023/12/18 10:25:26;;;;;;;13.65;8.23;;;6.50;99.90;;;;;;6284523;22;20156;-84
2023/12/18 10:27:55;;;;;;;11.07;7.50;;;6.50;99.90;;;;;;6285259;22;20168;-84
2023/12/18 10:30:25;;;;;;;14.88;8.52;;;6.50;99.90;;;;;;6258254;22;20454;-84
2023/12/18 10:32:51;;;;;;;13.43;8.40;;;6.50;99.90;;;;;;6282593;22;20156;-85
2023/12/18 10:35:17;;;;;;;15.27;8.18;;;6.60;99.90;;;;;;6284759;22;20152;-85
2023/12/18 10:37:48;;;;;;;14.13;8.70;;;6.60;99.90;;;;;;6252225;22;20156;-84
2023/12/18 10:40:18;;;;;;;14.93;9.52;;;6.70;99.90;;;;;;6280309;22;20854;-84
2023/12/18 10:43:06;;;;;;;16.95;8.90;;;6.70;99.90;;;;;;6252110;22;20203;-84
2023/12/18 10:45:34;;;;;;;13.32;8.15;;;6.70;99.90;;;;;;6227011;22;20457;-84
2023/12/18 10:48:00;;;;;;;13.85;7.82;;;6.70;99.90;;;;;;6253129;22;20176;-85
2023/12/18 10:50:30;;;;;;;17.38;10.30;;;6.80;99.90;;;;;;6253785;22;20231;-84
2023/12/18 10:52:58;;;;;;;14.32;8.48;;;6.80;99.90;;;;;;6250687;22;20207;-83
2023/12/18 10:55:23;;;;;;;15.48;9.63;;;6.90;99.90;;;;;;6277382;22;20156;-85
2023/12/18 10:57:50;;;;;;;15.57;10.07;;;6.90;99.90;;;;;;6277476;22;20152;-82
2023/12/18 11:00:17;;;;;;;13.60;9.07;;;6.90;99.90;;;;;;6249146;22;20165;-84
2023/12/18 11:02:44;;;;;;;17.50;11.18;;;6.90;99.90;;;;;;6277806;22;20153;-85
2023/12/18 11:05:12;;;;;;;18.42;10.38;;;6.90;99.90;;;;;;6277844;22;20232;-83
2023/12/18 11:07:38;;;;;;;22.30;10.20;;;6.90;99.90;;;;;;6277270;22;20153;-83
2023/12/18 11:10:05;;;;;;;18.75;9.98;;;6.90;99.90;;;;;;6251571;22;20299;-84
2023/12/18 11:12:32;;;;;;;14.35;9.10;;;6.90;99.90;;;;;;6278591;22;20149;-83
2023/12/18 11:15:09;;;;;;;14.32;9.48;;;6.90;99.90;;;;;;6278000;22;20617;-81
2023/12/18 11:18:18;;;;;;;16.60;10.27;;;6.90;99.90;;;;;;6279227;22;20145;-84
2023/12/18 11:20:44;;;;;;;15.73;7.65;;;7.00;99.90;;;;;;6125048;23;20164;-84
2023/12/18 11:23:13;;;;;;;13.60;8.60;;;7.00;99.90;;;;;;6101587;23;20504;-82
2023/12/18 11:25:43;;;;;;;14.13;8.52;;;7.00;99.90;;;;;;6180509;22;20161;-85
2023/12/18 11:28:09;;;;;;;13.47;8.17;;;7.00;99.90;;;;;;6250013;22;20199;-82
2023/12/18 11:30:44;;;;;;;15.30;9.20;;;7.10;99.90;;;;;;6278501;22;20379;-83
2023/12/18 11:33:11;;;;;;;16.27;8.88;;;7.10;99.90;;;;;;6276421;22;20207;-83
2023/12/18 11:35:42;;;;;;;14.43;9.07;;;7.10;86.20;;;;;;6251050;22;20179;-84
2023/12/18 11:38:14;;;;;;;16.63;8.57;;;7.00;48.40;;;;;;6276009;22;20183;-83
2023/12/18 11:40:43;;;;;;;14.82;8.82;;;7.00;99.90;;;;;;6277990;22;20137;-83
2023/12/18 11:43:13;;;;;;;15.07;9.63;;;7.10;99.90;;;;;;6283951;22;20156;-85
2023/12/18 11:45:44;;;;;;;17.05;8.95;;;7.10;45.50;;;;;;6258114;22;20220;-84
2023/12/18 11:48:16;;;;;;;12.73;9.27;;;7.10;27.70;;;;;;6282976;22;20188;-83
2023/12/18 11:50:41;;;;;;;13.88;9.07;;;7.20;1.00;;;;;;6254326;22;20160;-84
2023/12/18 11:53:31;;;;;;;13.27;9.30;;;7.20;1.00;;;;;;6257205;22;20160;-83
2023/12/18 11:55:57;;;;;;;15.18;10.10;;;7.20;18.80;;;;;;6259786;22;20383;-83
2023/12/18 11:58:26;;;;;;;15.80;9.60;;;7.30;1.00;;;;;;6283773;22;20523;-84
2023/12/18 12:00:54;;;;;;;13.90;9.63;;;7.20;1.00;;;;;;6257045;22;20157;-83
2023/12/18 12:03:22;;;;;;;16.20;10.70;;;7.30;1.00;;;;;;6256679;22;20871;-83
2023/12/18 12:05:49;;;;;;;14.48;10.13;;;7.30;1.00;;;;;;6255674;22;20391;-84
2023/12/18 12:08:15;;;;;;;16.43;10.80;;;7.30;1.00;;;;;;6251507;22;20266;-83
2023/12/18 12:10:49;;;;;;;15.43;10.40;;;7.30;1.00;;;;;;6256873;22;20406;-84
2023/12/18 12:13:23;;;;;;;19.67;10.25;;;7.30;1.00;;;;;;6282960;22;20700;-84
2023/12/18 12:15:56;;;;;;;15.93;9.50;;;7.30;1.00;;;;;;6284008;22;20159;-83
2023/12/18 12:18:26;;;;;;;15.50;10.17;;;7.30;1.00;;;;;;6255656;22;20415;-85
2023/12/18 12:20:52;;;;;;;15.77;9.73;;;7.30;1.00;;;;;;6257494;22;20395;-84
2023/12/18 12:23:17;;;;;;;13.37;8.60;;;7.30;1.00;;;;;;6256902;22;20165;-84
2023/12/18 12:25:44;;;;;;;13.07;8.77;;;7.40;1.00;;;;;;6251699;22;20383;-84
2023/12/18 12:28:09;;;;;;;13.83;8.77;;;7.40;99.90;;;;;;6251428;22;20238;-83
2023/12/18 12:30:35;;;;;;;15.33;9.00;;;7.50;99.90;;;;;;6249146;22;20387;-82
2023/12/18 12:33:03;;;;;;;12.93;8.37;;;7.50;99.90;;;;;;6284964;22;20171;-85
2023/12/18 12:35:32;;;;;;;13.88;9.45;;;7.40;99.90;;;;;;6284642;22;20430;-84
2023/12/18 12:37:59;;;;;;;12.80;8.50;;;7.40;99.90;;;;;;6286926;22;20678;-85
2023/12/18 12:40:39;;;;;;;13.40;8.27;;;7.30;99.90;;;;;;6258248;22;20390;-84
2023/12/18 12:43:05;;;;;;;12.68;8.95;;;7.30;99.90;;;;;;6250699;22;20152;-84
2023/12/18 12:45:33;;;;;;;14.98;7.93;;;7.40;99.90;;;;;;6276660;22;20160;-84
2023/12/18 12:48:03;;;;;;;11.83;8.03;;;7.40;99.90;;;;;;6275575;22;20176;-83